Terminal Aerodrome Forecast
Issued by NWS

Home | Current Version | Previous Version | Text Only | Print | Product List | Glossary On
Versions: 1 2 3 4 5 6 7 8 9 10 11 12 13 14 15 16 17 18 19 20 21
000
FTUS43 KILX 051700
TAFBMI
TAF
KBMI 051732Z 0518/0618 31012KT P6SM SCT030
     FM060100 VRB03KT P6SM SKC
     FM061000 20008KT P6SM BKN090
     FM061500 19016G24KT P6SM BKN090=

USA.gov is the U.S. government's official web portal to all federal, state and local government web resources and services.